sensor_id;sensor_type;location;lat;lon;timestamp;P1;durP1;ratioP1;P2;durP2;ratioP2
20336;SDS011;10326;53.660;10.200;2023-06-22T00:00:22;3.40;;;3.10;;
20336;SDS011;10326;53.660;10.200;2023-06-22T00:02:49;4.05;;;3.55;;
20336;SDS011;10326;53.660;10.200;2023-06-22T00:05:16;3.80;;;3.33;;
20336;SDS011;10326;53.660;10.200;2023-06-22T00:07:43;3.20;;;2.90;;
20336;SDS011;10326;53.660;10.200;2023-06-22T00:10:11;3.85;;;3.55;;
20336;SDS011;10326;53.660;10.200;2023-06-22T00:12:38;3.58;;;3.28;;
20336;SDS011;10326;53.660;10.200;2023-06-22T00:15:05;3.03;;;2.72;;
20336;SDS011;10326;53.660;10.200;2023-06-22T00:17:34;3.08;;;2.67;;
20336;SDS011;10326;53.660;10.200;2023-06-22T00:20:01;3.65;;;3.35;;
20336;SDS011;10326;53.660;10.200;2023-06-22T00:22:33;2.97;;;2.60;;
20336;SDS011;10326;53.660;10.200;2023-06-22T00:25:04;3.60;;;3.30;;
20336;SDS011;10326;53.660;10.200;2023-06-22T00:27:33;4.30;;;3.22;;
20336;SDS011;10326;53.660;10.200;2023-06-22T00:30:00;3.20;;;2.92;;
20336;SDS011;10326;53.660;10.200;2023-06-22T00:32:28;3.85;;;3.55;;
20336;SDS011;10326;53.660;10.200;2023-06-22T00:34:57;4.18;;;2.90;;
20336;SDS011;10326;53.660;10.200;2023-06-22T00:37:25;3.60;;;3.30;;
20336;SDS011;10326;53.660;10.200;2023-06-22T00:39:54;3.53;;;3.22;;
20336;SDS011;10326;53.660;10.200;2023-06-22T00:42:22;4.25;;;3.22;;
20336;SDS011;10326;53.660;10.200;2023-06-22T00:44:49;3.40;;;3.17;;
20336;SDS011;10326;53.660;10.200;2023-06-22T00:47:17;3.55;;;3.17;;
20336;SDS011;10326;53.660;10.200;2023-06-22T00:49:45;3.50;;;3.20;;
20336;SDS011;10326;53.660;10.200;2023-06-22T00:52:17;3.72;;;3.38;;
20336;SDS011;10326;53.660;10.200;2023-06-22T00:54:48;3.22;;;2.92;;
20336;SDS011;10326;53.660;10.200;2023-06-22T00:57:16;4.10;;;3.30;;
20336;SDS011;10326;53.660;10.200;2023-06-22T00:59:45;3.47;;;3.00;;
20336;SDS011;10326;53.660;10.200;2023-06-22T01:02:15;4.00;;;3.03;;
20336;SDS011;10326;53.660;10.200;2023-06-22T01:04:42;3.28;;;2.97;;
20336;SDS011;10326;53.660;10.200;2023-06-22T01:07:10;3.97;;;3.53;;
20336;SDS011;10326;53.660;10.200;2023-06-22T01:09:50;3.08;;;2.88;;
20336;SDS011;10326;53.660;10.200;2023-06-22T01:12:23;4.47;;;3.40;;
20336;SDS011;10326;53.660;10.200;2023-06-22T01:14:55;3.72;;;3.42;;
20336;SDS011;10326;53.660;10.200;2023-06-22T01:17:26;3.30;;;3.10;;
20336;SDS011;10326;53.660;10.200;2023-06-22T01:19:55;3.50;;;3.20;;
20336;SDS011;10326;53.660;10.200;2023-06-22T01:22:30;4.80;;;2.90;;
20336;SDS011;10326;53.660;10.200;2023-06-22T01:25:07;3.58;;;3.15;;
20336;SDS011;10326;53.660;10.200;2023-06-22T01:27:39;3.30;;;2.97;;
20336;SDS011;10326;53.660;10.200;2023-06-22T01:30:17;3.30;;;3.00;;
20336;SDS011;10326;53.660;10.200;2023-06-22T01:32:46;3.25;;;2.95;;
20336;SDS011;10326;53.660;10.200;2023-06-22T01:35:14;3.83;;;3.47;;
20336;SDS011;10326;53.660;10.200;2023-06-22T01:37:43;3.42;;;3.13;;
20336;SDS011;10326;53.660;10.200;2023-06-22T01:40:10;3.72;;;3.00;;
20336;SDS011;10326;53.660;10.200;2023-06-22T01:42:38;3.35;;;2.80;;
20336;SDS011;10326;53.660;10.200;2023-06-22T01:45:07;7.38;;;3.10;;
20336;SDS011;10326;53.660;10.200;2023-06-22T01:47:38;3.30;;;3.00;;
20336;SDS011;10326;53.660;10.200;2023-06-22T01:50:06;4.03;;;2.97;;
20336;SDS011;10326;53.660;10.200;2023-06-22T01:52:34;3.40;;;3.10;;
20336;SDS011;10326;53.660;10.200;2023-06-22T01:55:01;3.45;;;3.15;;
20336;SDS011;10326;53.660;10.200;2023-06-22T01:57:29;4.00;;;3.10;;
20336;SDS011;10326;53.660;10.200;2023-06-22T01:59:59;3.97;;;2.97;;
20336;SDS011;10326;53.660;10.200;2023-06-22T02:02:42;3.47;;;2.90;;
20336;SDS011;10326;53.660;10.200;2023-06-22T02:05:16;3.20;;;2.90;;
20336;SDS011;10326;53.660;10.200;2023-06-22T02:07:46;4.47;;;3.53;;
20336;SDS011;10326;53.660;10.200;2023-06-22T02:10:19;3.47;;;3.25;;
20336;SDS011;10326;53.660;10.200;2023-06-22T02:12:48;3.42;;;3.13;;
20336;SDS011;10326;53.660;10.200;2023-06-22T02:15:18;3.03;;;2.83;;
20336;SDS011;10326;53.660;10.200;2023-06-22T02:17:47;3.30;;;3.00;;
20336;SDS011;10326;53.660;10.200;2023-06-22T02:20:15;3.25;;;2.95;;
20336;SDS011;10326;53.660;10.200;2023-06-22T02:22:43;3.95;;;3.65;;
20336;SDS011;10326;53.660;10.200;2023-06-22T02:25:10;3.40;;;3.10;;
20336;SDS011;10326;53.660;10.200;2023-06-22T02:27:37;3.00;;;2.80;;
20336;SDS011;10326;53.660;10.200;2023-06-22T02:30:07;3.97;;;2.70;;
20336;SDS011;10326;53.660;10.200;2023-06-22T02:32:38;3.30;;;3.00;;
20336;SDS011;10326;53.660;10.200;2023-06-22T02:35:09;3.10;;;2.90;;
20336;SDS011;10326;53.660;10.200;2023-06-22T02:37:37;3.45;;;3.15;;
20336;SDS011;10326;53.660;10.200;2023-06-22T02:40:07;3.22;;;2.90;;
20336;SDS011;10326;53.660;10.200;2023-06-22T02:42:35;3.83;;;3.22;;
20336;SDS011;10326;53.660;10.200;2023-06-22T02:45:03;3.58;;;3.28;;
20336;SDS011;10326;53.660;10.200;2023-06-22T02:47:31;3.53;;;3.17;;
20336;SDS011;10326;53.660;10.200;2023-06-22T02:49:59;3.47;;;3.17;;
20336;SDS011;10326;53.660;10.200;2023-06-22T02:52:30;3.65;;;3.35;;
20336;SDS011;10326;53.660;10.200;2023-06-22T02:54:57;3.42;;;3.13;;
20336;SDS011;10326;53.660;10.200;2023-06-22T02:57:25;3.70;;;3.15;;
20336;SDS011;10326;53.660;10.200;2023-06-22T02:59:52;5.47;;;3.78;;
20336;SDS011;10326;53.660;10.200;2023-06-22T03:02:20;3.10;;;2.88;;
20336;SDS011;10326;53.660;10.200;2023-06-22T03:04:48;3.88;;;3.30;;
20336;SDS011;10326;53.660;10.200;2023-06-22T03:07:15;3.38;;;3.08;;
20336;SDS011;10326;53.660;10.200;2023-06-22T03:09:45;3.72;;;3.42;;
20336;SDS011;10326;53.660;10.200;2023-06-22T03:12:12;4.95;;;3.63;;
20336;SDS011;10326;53.660;10.200;2023-06-22T03:14:49;3.65;;;3.35;;
20336;SDS011;10326;53.660;10.200;2023-06-22T03:17:17;3.70;;;3.40;;
20336;SDS011;10326;53.660;10.200;2023-06-22T03:19:44;4.50;;;3.72;;
20336;SDS011;10326;53.660;10.200;2023-06-22T03:22:11;3.55;;;3.25;;
20336;SDS011;10326;53.660;10.200;2023-06-22T03:24:40;4.00;;;3.70;;
20336;SDS011;10326;53.660;10.200;2023-06-22T03:27:09;3.90;;;3.60;;
20336;SDS011;10326;53.660;10.200;2023-06-22T03:29:36;3.80;;;3.50;;
20336;SDS011;10326;53.660;10.200;2023-06-22T03:32:04;4.10;;;3.70;;
20336;SDS011;10326;53.660;10.200;2023-06-22T03:34:32;4.75;;;3.60;;
20336;SDS011;10326;53.660;10.200;2023-06-22T03:37:03;4.90;;;3.80;;
20336;SDS011;10326;53.660;10.200;2023-06-22T03:39:31;4.32;;;3.88;;
20336;SDS011;10326;53.660;10.200;2023-06-22T03:41:58;4.50;;;4.10;;
20336;SDS011;10326;53.660;10.200;2023-06-22T03:44:27;3.97;;;3.67;;
20336;SDS011;10326;53.660;10.200;2023-06-22T03:46:54;4.05;;;3.58;;
20336;SDS011;10326;53.660;10.200;2023-06-22T03:49:21;4.20;;;3.80;;
20336;SDS011;10326;53.660;10.200;2023-06-22T03:51:48;4.07;;;3.78;;
20336;SDS011;10326;53.660;10.200;2023-06-22T03:54:16;3.97;;;3.65;;
20336;SDS011;10326;53.660;10.200;2023-06-22T03:56:43;3.85;;;3.55;;
20336;SDS011;10326;53.660;10.200;2023-06-22T03:59:10;4.38;;;3.97;;
20336;SDS011;10326;53.660;10.200;2023-06-22T04:01:39;4.32;;;3.92;;
20336;SDS011;10326;53.660;10.200;2023-06-22T04:04:06;4.05;;;3.75;;
20336;SDS011;10326;53.660;10.200;2023-06-22T04:06:33;4.90;;;4.30;;
20336;SDS011;10326;53.660;10.200;2023-06-22T04:09:00;4.20;;;3.80;;
20336;SDS011;10326;53.660;10.200;2023-06-22T04:11:28;4.43;;;3.90;;
20336;SDS011;10326;53.660;10.200;2023-06-22T04:13:55;4.32;;;3.92;;
20336;SDS011;10326;53.660;10.200;2023-06-22T04:16:22;4.40;;;4.00;;
20336;SDS011;10326;53.660;10.200;2023-06-22T04:18:51;5.82;;;4.60;;
20336;SDS011;10326;53.660;10.200;2023-06-22T04:21:18;5.00;;;4.47;;
20336;SDS011;10326;53.660;10.200;2023-06-22T04:23:45;5.57;;;5.07;;
20336;SDS011;10326;53.660;10.200;2023-06-22T04:26:12;5.32;;;4.60;;
20336;SDS011;10326;53.660;10.200;2023-06-22T04:28:40;4.60;;;4.20;;
20336;SDS011;10326;53.660;10.200;2023-06-22T04:31:07;5.13;;;4.60;;
20336;SDS011;10326;53.660;10.200;2023-06-22T04:33:34;4.00;;;3.60;;
20336;SDS011;10326;53.660;10.200;2023-06-22T04:36:04;3.83;;;3.53;;
20336;SDS011;10326;53.660;10.200;2023-06-22T04:38:31;5.28;;;3.85;;
20336;SDS011;10326;53.660;10.200;2023-06-22T04:40:59;4.70;;;4.20;;
20336;SDS011;10326;53.660;10.200;2023-06-22T04:43:28;4.88;;;4.38;;
20336;SDS011;10326;53.660;10.200;2023-06-22T04:45:55;4.60;;;4.20;;
20336;SDS011;10326;53.660;10.200;2023-06-22T04:48:28;5.00;;;4.50;;
20336;SDS011;10326;53.660;10.200;2023-06-22T04:50:57;4.45;;;4.15;;
20336;SDS011;10326;53.660;10.200;2023-06-22T04:53:29;4.50;;;4.10;;
20336;SDS011;10326;53.660;10.200;2023-06-22T04:55:56;5.05;;;4.65;;
20336;SDS011;10326;53.660;10.200;2023-06-22T04:58:24;5.32;;;4.82;;
20336;SDS011;10326;53.660;10.200;2023-06-22T05:00:53;5.55;;;5.05;;
20336;SDS011;10326;53.660;10.200;2023-06-22T05:03:22;5.93;;;4.65;;
20336;SDS011;10326;53.660;10.200;2023-06-22T05:05:52;5.18;;;4.68;;
20336;SDS011;10326;53.660;10.200;2023-06-22T05:08:19;5.90;;;5.30;;
20336;SDS011;10326;53.660;10.200;2023-06-22T05:10:48;5.82;;;5.10;;
20336;SDS011;10326;53.660;10.200;2023-06-22T05:13:15;5.28;;;4.78;;
20336;SDS011;10326;53.660;10.200;2023-06-22T05:15:42;5.22;;;4.72;;
20336;SDS011;10326;53.660;10.200;2023-06-22T05:18:09;5.70;;;4.85;;
20336;SDS011;10326;53.660;10.200;2023-06-22T05:20:37;5.80;;;5.30;;
20336;SDS011;10326;53.660;10.200;2023-06-22T05:23:04;5.80;;;5.22;;
20336;SDS011;10326;53.660;10.200;2023-06-22T05:25:31;5.18;;;4.68;;
20336;SDS011;10326;53.660;10.200;2023-06-22T05:28:00;4.93;;;4.45;;
20336;SDS011;10326;53.660;10.200;2023-06-22T05:30:36;6.40;;;4.85;;
20336;SDS011;10326;53.660;10.200;2023-06-22T05:33:03;5.72;;;4.90;;
20336;SDS011;10326;53.660;10.200;2023-06-22T05:35:30;5.15;;;4.47;;
20336;SDS011;10326;53.660;10.200;2023-06-22T05:37:58;4.30;;;3.85;;
20336;SDS011;10326;53.660;10.200;2023-06-22T05:40:25;5.65;;;4.05;;
20336;SDS011;10326;53.660;10.200;2023-06-22T05:42:52;4.88;;;4.07;;
20336;SDS011;10326;53.660;10.200;2023-06-22T05:45:21;4.10;;;3.70;;
20336;SDS011;10326;53.660;10.200;2023-06-22T05:47:48;4.03;;;3.63;;
20336;SDS011;10326;53.660;10.200;2023-06-22T05:50:15;4.60;;;3.72;;
20336;SDS011;10326;53.660;10.200;2023-06-22T05:52:42;3.72;;;3.33;;
20336;SDS011;10326;53.660;10.200;2023-06-22T05:55:09;3.55;;;3.25;;
20336;SDS011;10326;53.660;10.200;2023-06-22T05:57:36;3.80;;;2.88;;
20336;SDS011;10326;53.660;10.200;2023-06-22T06:00:04;4.53;;;3.47;;
20336;SDS011;10326;53.660;10.200;2023-06-22T06:02:37;3.85;;;3.30;;
20336;SDS011;10326;53.660;10.200;2023-06-22T06:05:08;3.42;;;2.70;;
20336;SDS011;10326;53.660;10.200;2023-06-22T06:07:39;3.30;;;3.00;;
20336;SDS011;10326;53.660;10.200;2023-06-22T06:10:07;4.05;;;2.90;;
20336;SDS011;10326;53.660;10.200;2023-06-22T06:12:35;3.03;;;2.80;;
20336;SDS011;10326;53.660;10.200;2023-06-22T06:15:02;3.13;;;2.67;;
20336;SDS011;10326;53.660;10.200;2023-06-22T06:17:30;2.65;;;2.45;;
20336;SDS011;10326;53.660;10.200;2023-06-22T06:19:59;2.97;;;2.42;;
20336;SDS011;10326;53.660;10.200;2023-06-22T06:22:30;3.85;;;3.05;;
20336;SDS011;10326;53.660;10.200;2023-06-22T06:24:57;2.80;;;2.50;;
20336;SDS011;10326;53.660;10.200;2023-06-22T06:27:24;2.90;;;2.45;;
20336;SDS011;10326;53.660;10.200;2023-06-22T06:29:55;3.20;;;2.90;;
20336;SDS011;10326;53.660;10.200;2023-06-22T06:32:23;2.88;;;2.67;;
20336;SDS011;10326;53.660;10.200;2023-06-22T06:34:50;2.70;;;2.50;;
20336;SDS011;10326;53.660;10.200;2023-06-22T06:37:19;3.83;;;2.55;;
20336;SDS011;10326;53.660;10.200;2023-06-22T06:39:47;3.03;;;2.70;;
20336;SDS011;10326;53.660;10.200;2023-06-22T06:42:14;3.97;;;2.70;;
20336;SDS011;10326;53.660;10.200;2023-06-22T06:44:41;2.63;;;2.42;;
20336;SDS011;10326;53.660;10.200;2023-06-22T06:47:09;2.85;;;2.65;;
20336;SDS011;10326;53.660;10.200;2023-06-22T06:49:36;3.90;;;2.40;;
20336;SDS011;10326;53.660;10.200;2023-06-22T06:52:03;2.67;;;2.20;;
20336;SDS011;10326;53.660;10.200;2023-06-22T06:54:33;2.80;;;2.60;;
20336;SDS011;10326;53.660;10.200;2023-06-22T06:57:01;2.95;;;2.67;;
20336;SDS011;10326;53.660;10.200;2023-06-22T06:59:28;3.10;;;2.80;;
20336;SDS011;10326;53.660;10.200;2023-06-22T07:01:56;3.95;;;2.75;;
20336;SDS011;10326;53.660;10.200;2023-06-22T07:04:23;4.40;;;2.75;;
20336;SDS011;10326;53.660;10.200;2023-06-22T07:06:50;3.17;;;2.88;;
20336;SDS011;10326;53.660;10.200;2023-06-22T07:09:17;2.97;;;2.78;;
20336;SDS011;10326;53.660;10.200;2023-06-22T07:11:46;4.93;;;2.92;;
20336;SDS011;10326;53.660;10.200;2023-06-22T07:14:13;5.28;;;3.08;;
20336;SDS011;10326;53.660;10.200;2023-06-22T07:16:40;3.28;;;2.85;;
20336;SDS011;10326;53.660;10.200;2023-06-22T07:19:08;3.83;;;2.70;;
20336;SDS011;10326;53.660;10.200;2023-06-22T07:21:37;2.60;;;2.40;;
20336;SDS011;10326;53.660;10.200;2023-06-22T07:24:05;3.45;;;2.67;;
20336;SDS011;10326;53.660;10.200;2023-06-22T07:26:33;3.38;;;2.40;;
20336;SDS011;10326;53.660;10.200;2023-06-22T07:29:02;3.08;;;2.78;;
20336;SDS011;10326;53.660;10.200;2023-06-22T07:31:29;3.22;;;2.92;;
20336;SDS011;10326;53.660;10.200;2023-06-22T07:33:56;3.35;;;2.92;;
20336;SDS011;10326;53.660;10.200;2023-06-22T07:36:23;4.65;;;2.75;;
20336;SDS011;10326;53.660;10.200;2023-06-22T07:38:50;3.55;;;3.03;;
20336;SDS011;10326;53.660;10.200;2023-06-22T07:41:18;3.78;;;2.72;;
20336;SDS011;10326;53.660;10.200;2023-06-22T07:43:45;3.10;;;2.80;;
20336;SDS011;10326;53.660;10.200;2023-06-22T07:46:14;2.75;;;2.53;;
20336;SDS011;10326;53.660;10.200;2023-06-22T07:48:42;3.47;;;2.95;;
20336;SDS011;10326;53.660;10.200;2023-06-22T07:51:09;3.28;;;2.97;;
20336;SDS011;10326;53.660;10.200;2023-06-22T07:53:38;3.65;;;2.88;;
20336;SDS011;10326;53.660;10.200;2023-06-22T07:56:06;3.15;;;2.85;;
20336;SDS011;10326;53.660;10.200;2023-06-22T07:58:33;11.07;;;4.50;;
20336;SDS011;10326;53.660;10.200;2023-06-22T08:01:01;22.17;;;8.73;;
20336;SDS011;10326;53.660;10.200;2023-06-22T08:03:30;7.32;;;3.88;;
20336;SDS011;10326;53.660;10.200;2023-06-22T08:05:57;3.20;;;2.90;;
20336;SDS011;10326;53.660;10.200;2023-06-22T08:08:24;2.60;;;2.40;;
20336;SDS011;10326;53.660;10.200;2023-06-22T08:10:52;3.50;;;2.80;;
20336;SDS011;10326;53.660;10.200;2023-06-22T08:13:19;5.50;;;3.50;;
20336;SDS011;10326;53.660;10.200;2023-06-22T08:15:46;5.93;;;3.65;;
20336;SDS011;10326;53.660;10.200;2023-06-22T08:18:14;4.47;;;3.72;;
20336;SDS011;10326;53.660;10.200;2023-06-22T08:20:43;5.38;;;3.00;;
20336;SDS011;10326;53.660;10.200;2023-06-22T08:23:11;2.92;;;2.70;;
20336;SDS011;10326;53.660;10.200;2023-06-22T08:25:38;2.50;;;2.30;;
20336;SDS011;10326;53.660;10.200;2023-06-22T08:28:05;2.78;;;2.53;;
20336;SDS011;10326;53.660;10.200;2023-06-22T08:30:32;3.15;;;2.85;;
20336;SDS011;10326;53.660;10.200;2023-06-22T08:32:59;2.92;;;2.33;;
20336;SDS011;10326;53.660;10.200;2023-06-22T08:35:26;3.13;;;2.80;;
20336;SDS011;10326;53.660;10.200;2023-06-22T08:37:55;2.97;;;2.60;;
20336;SDS011;10326;53.660;10.200;2023-06-22T08:40:23;3.15;;;2.80;;
20336;SDS011;10326;53.660;10.200;2023-06-22T08:42:50;4.90;;;2.80;;
20336;SDS011;10326;53.660;10.200;2023-06-22T08:45:21;3.28;;;2.72;;
20336;SDS011;10326;53.660;10.200;2023-06-22T08:48:18;2.75;;;2.40;;
20336;SDS011;10326;53.660;10.200;2023-06-22T08:50:45;4.35;;;2.40;;
20336;SDS011;10326;53.660;10.200;2023-06-22T08:53:16;2.58;;;2.38;;
20336;SDS011;10326;53.660;10.200;2023-06-22T08:55:44;2.53;;;2.33;;
20336;SDS011;10326;53.660;10.200;2023-06-22T09:09:32;2.45;;;2.25;;
20336;SDS011;10326;53.660;10.200;2023-06-22T09:11:59;3.92;;;2.35;;
20336;SDS011;10326;53.660;10.200;2023-06-22T09:14:26;2.95;;;2.65;;
20336;SDS011;10326;53.660;10.200;2023-06-22T09:16:54;2.45;;;2.25;;
20336;SDS011;10326;53.660;10.200;2023-06-22T09:19:21;2.90;;;2.42;;
20336;SDS011;10326;53.660;10.200;2023-06-22T09:21:50;2.90;;;2.65;;
20336;SDS011;10326;53.660;10.200;2023-06-22T09:24:18;3.15;;;2.85;;
20336;SDS011;10326;53.660;10.200;2023-06-22T09:26:49;2.72;;;2.53;;
20336;SDS011;10326;53.660;10.200;2023-06-22T09:29:16;3.30;;;2.35;;
20336;SDS011;10326;53.660;10.200;2023-06-22T09:31:44;3.50;;;2.83;;
20336;SDS011;10326;53.660;10.200;2023-06-22T09:34:11;2.72;;;2.33;;
20336;SDS011;10326;53.660;10.200;2023-06-22T09:36:38;2.65;;;2.30;;
20336;SDS011;10326;53.660;10.200;2023-06-22T09:39:07;2.45;;;2.20;;
20336;SDS011;10326;53.660;10.200;2023-06-22T09:41:34;3.03;;;2.45;;
20336;SDS011;10326;53.660;10.200;2023-06-22T09:44:39;3.00;;;2.70;;
20336;SDS011;10326;53.660;10.200;2023-06-22T09:47:09;4.88;;;2.90;;
20336;SDS011;10326;53.660;10.200;2023-06-22T09:49:37;2.90;;;2.70;;
20336;SDS011;10326;53.660;10.200;2023-06-22T09:52:05;4.97;;;2.90;;
20336;SDS011;10326;53.660;10.200;2023-06-22T09:54:33;3.50;;;3.00;;
20336;SDS011;10326;53.660;10.200;2023-06-22T09:57:02;3.83;;;2.88;;
20336;SDS011;10326;53.660;10.200;2023-06-22T09:59:29;4.05;;;2.80;;
20336;SDS011;10326;53.660;10.200;2023-06-22T10:01:56;3.10;;;2.72;;
20336;SDS011;10326;53.660;10.200;2023-06-22T10:04:23;3.92;;;2.90;;
20336;SDS011;10326;53.660;10.200;2023-06-22T10:06:51;3.58;;;2.70;;
20336;SDS011;10326;53.660;10.200;2023-06-22T10:09:18;4.15;;;3.03;;
20336;SDS011;10326;53.660;10.200;2023-06-22T10:11:46;2.63;;;2.42;;
20336;SDS011;10326;53.660;10.200;2023-06-22T10:14:15;3.33;;;3.00;;
20336;SDS011;10326;53.660;10.200;2023-06-22T10:16:42;3.90;;;2.80;;
20336;SDS011;10326;53.660;10.200;2023-06-22T10:19:09;3.30;;;2.90;;
20336;SDS011;10326;53.660;10.200;2023-06-22T10:21:36;2.90;;;2.60;;
20336;SDS011;10326;53.660;10.200;2023-06-22T10:24:04;2.90;;;2.70;;
20336;SDS011;10326;53.660;10.200;2023-06-22T10:26:32;4.07;;;2.92;;
20336;SDS011;10326;53.660;10.200;2023-06-22T10:28:59;3.10;;;2.80;;
20336;SDS011;10326;53.660;10.200;2023-06-22T10:31:28;3.03;;;2.72;;
20336;SDS011;10326;53.660;10.200;2023-06-22T10:33:55;3.08;;;2.72;;
20336;SDS011;10326;53.660;10.200;2023-06-22T10:36:23;3.70;;;3.40;;
20336;SDS011;10326;53.660;10.200;2023-06-22T10:38:50;6.18;;;3.35;;
20336;SDS011;10326;53.660;10.200;2023-06-22T10:41:18;5.32;;;3.47;;
20336;SDS011;10326;53.660;10.200;2023-06-22T10:43:45;2.92;;;2.67;;
20336;SDS011;10326;53.660;10.200;2023-06-22T10:46:12;2.88;;;2.67;;
20336;SDS011;10326;53.660;10.200;2023-06-22T10:48:41;3.10;;;2.80;;
20336;SDS011;10326;53.660;10.200;2023-06-22T10:51:08;3.85;;;2.63;;
20336;SDS011;10326;53.660;10.200;2023-06-22T10:53:35;3.53;;;2.83;;
20336;SDS011;10326;53.660;10.200;2023-06-22T10:56:03;3.30;;;3.00;;
20336;SDS011;10326;53.660;10.200;2023-06-22T10:58:30;3.53;;;2.70;;
20336;SDS011;10326;53.660;10.200;2023-06-22T11:00:57;3.42;;;3.00;;
20336;SDS011;10326;53.660;10.200;2023-06-22T11:03:25;4.38;;;2.88;;
20336;SDS011;10326;53.660;10.200;2023-06-22T11:05:53;3.65;;;3.20;;
20336;SDS011;10326;53.660;10.200;2023-06-22T11:08:21;3.28;;;3.05;;
20336;SDS011;10326;53.660;10.200;2023-06-22T11:10:48;4.93;;;2.95;;
20336;SDS011;10326;53.660;10.200;2023-06-22T11:13:17;3.03;;;2.78;;
20336;SDS011;10326;53.660;10.200;2023-06-22T11:15:44;3.10;;;2.80;;
20336;SDS011;10326;53.660;10.200;2023-06-22T11:18:12;3.42;;;3.10;;
20336;SDS011;10326;53.660;10.200;2023-06-22T11:20:39;3.80;;;3.38;;
20336;SDS011;10326;53.660;10.200;2023-06-22T11:23:08;3.72;;;3.30;;
20336;SDS011;10326;53.660;10.200;2023-06-22T11:25:37;3.42;;;3.17;;
20336;SDS011;10326;53.660;10.200;2023-06-22T11:28:04;3.85;;;3.50;;
20336;SDS011;10326;53.660;10.200;2023-06-22T11:30:31;3.53;;;3.22;;
20336;SDS011;10326;53.660;10.200;2023-06-22T11:33:00;3.40;;;3.10;;
20336;SDS011;10326;53.660;10.200;2023-06-22T11:35:27;3.65;;;3.25;;
20336;SDS011;10326;53.660;10.200;2023-06-22T11:37:54;3.50;;;3.20;;
20336;SDS011;10326;53.660;10.200;2023-06-22T11:40:23;4.10;;;3.80;;
20336;SDS011;10326;53.660;10.200;2023-06-22T11:42:51;5.22;;;3.50;;
20336;SDS011;10326;53.660;10.200;2023-06-22T11:45:18;3.95;;;3.65;;
20336;SDS011;10326;53.660;10.200;2023-06-22T11:47:46;4.13;;;3.63;;
20336;SDS011;10326;53.660;10.200;2023-06-22T11:50:13;3.45;;;3.15;;
20336;SDS011;10326;53.660;10.200;2023-06-22T11:52:42;4.03;;;3.40;;
20336;SDS011;10326;53.660;10.200;2023-06-22T11:55:09;3.60;;;3.30;;
20336;SDS011;10326;53.660;10.200;2023-06-22T11:57:38;4.10;;;3.80;;
20336;SDS011;10326;53.660;10.200;2023-06-22T12:00:19;3.70;;;3.40;;
20336;SDS011;10326;53.660;10.200;2023-06-22T12:02:49;3.25;;;3.00;;
20336;SDS011;10326;53.660;10.200;2023-06-22T12:05:17;3.72;;;3.40;;
20336;SDS011;10326;53.660;10.200;2023-06-22T12:07:45;3.17;;;2.90;;
20336;SDS011;10326;53.660;10.200;2023-06-22T12:10:12;3.60;;;3.30;;
20336;SDS011;10326;53.660;10.200;2023-06-22T12:12:41;3.67;;;3.38;;
20336;SDS011;10326;53.660;10.200;2023-06-22T12:15:09;4.20;;;3.80;;
20336;SDS011;10326;53.660;10.200;2023-06-22T12:17:36;4.20;;;3.40;;
20336;SDS011;10326;53.660;10.200;2023-06-22T12:20:04;3.40;;;3.10;;
20336;SDS011;10326;53.660;10.200;2023-06-22T12:22:33;5.38;;;3.72;;
20336;SDS011;10326;53.660;10.200;2023-06-22T12:25:02;3.70;;;3.40;;
20336;SDS011;10326;53.660;10.200;2023-06-22T12:27:30;3.58;;;3.33;;
20336;SDS011;10326;53.660;10.200;2023-06-22T12:29:59;3.65;;;3.35;;
20336;SDS011;10326;53.660;10.200;2023-06-22T12:32:26;3.50;;;3.20;;
20336;SDS011;10326;53.660;10.200;2023-06-22T12:34:54;4.13;;;3.72;;
20336;SDS011;10326;53.660;10.200;2023-06-22T12:37:22;4.28;;;3.50;;
20336;SDS011;10326;53.660;10.200;2023-06-22T12:39:49;4.00;;;3.60;;
20336;SDS011;10326;53.660;10.200;2023-06-22T12:42:16;3.45;;;3.15;;
20336;SDS011;10326;53.660;10.200;2023-06-22T12:44:44;4.00;;;3.70;;
20336;SDS011;10326;53.660;10.200;2023-06-22T12:47:12;3.85;;;3.10;;
20336;SDS011;10326;53.660;10.200;2023-06-22T12:49:39;4.38;;;3.55;;
20336;SDS011;10326;53.660;10.200;2023-06-22T12:52:09;4.43;;;4.03;;
20336;SDS011;10326;53.660;10.200;2023-06-22T12:54:36;4.50;;;4.10;;
20336;SDS011;10326;53.660;10.200;2023-06-22T12:57:04;4.15;;;3.80;;
20336;SDS011;10326;53.660;10.200;2023-06-22T12:59:31;4.00;;;3.70;;
20336;SDS011;10326;53.660;10.200;2023-06-22T13:01:59;3.78;;;3.47;;
20336;SDS011;10326;53.660;10.200;2023-06-22T13:04:27;3.78;;;3.47;;
20336;SDS011;10326;53.660;10.200;2023-06-22T13:06:54;4.40;;;4.00;;
20336;SDS011;10326;53.660;10.200;2023-06-22T13:09:22;4.22;;;3.75;;
20336;SDS011;10326;53.660;10.200;2023-06-22T13:11:50;3.90;;;3.60;;
20336;SDS011;10326;53.660;10.200;2023-06-22T13:14:17;3.83;;;3.53;;
20336;SDS011;10326;53.660;10.200;2023-06-22T13:16:45;4.13;;;3.83;;
20336;SDS011;10326;53.660;10.200;2023-06-22T13:19:12;4.43;;;3.58;;
20336;SDS011;10326;53.660;10.200;2023-06-22T13:21:41;4.65;;;3.70;;
20336;SDS011;10326;53.660;10.200;2023-06-22T13:24:08;3.55;;;3.25;;
20336;SDS011;10326;53.660;10.200;2023-06-22T13:26:35;3.80;;;3.50;;
20336;SDS011;10326;53.660;10.200;2023-06-22T13:29:02;4.68;;;3.60;;
20336;SDS011;10326;53.660;10.200;2023-06-22T13:31:30;4.15;;;3.75;;
20336;SDS011;10326;53.660;10.200;2023-06-22T13:33:58;4.07;;;3.60;;
20336;SDS011;10326;53.660;10.200;2023-06-22T13:36:25;4.00;;;3.70;;
20336;SDS011;10326;53.660;10.200;2023-06-22T13:38:57;4.22;;;3.67;;
20336;SDS011;10326;53.660;10.200;2023-06-22T13:41:25;3.97;;;3.67;;
20336;SDS011;10326;53.660;10.200;2023-06-22T13:43:52;3.97;;;3.67;;
20336;SDS011;10326;53.660;10.200;2023-06-22T13:46:19;4.22;;;3.92;;
20336;SDS011;10326;53.660;10.200;2023-06-22T13:48:47;3.58;;;3.28;;
20336;SDS011;10326;53.660;10.200;2023-06-22T13:51:15;4.20;;;3.80;;
20336;SDS011;10326;53.660;10.200;2023-06-22T13:53:42;4.35;;;3.95;;
20336;SDS011;10326;53.660;10.200;2023-06-22T13:56:11;4.05;;;3.75;;
20336;SDS011;10326;53.660;10.200;2023-06-22T13:58:38;4.25;;;3.78;;
20336;SDS011;10326;53.660;10.200;2023-06-22T14:01:06;4.07;;;3.78;;
20336;SDS011;10326;53.660;10.200;2023-06-22T14:03:33;4.43;;;4.10;;
20336;SDS011;10326;53.660;10.200;2023-06-22T14:06:00;3.80;;;3.50;;
20336;SDS011;10326;53.660;10.200;2023-06-22T14:08:27;3.83;;;3.53;;
20336;SDS011;10326;53.660;10.200;2023-06-22T14:10:54;4.88;;;4.47;;
20336;SDS011;10326;53.660;10.200;2023-06-22T14:13:23;4.18;;;3.85;;
20336;SDS011;10326;53.660;10.200;2023-06-22T14:15:50;4.45;;;4.07;;
20336;SDS011;10326;53.660;10.200;2023-06-22T14:18:19;4.47;;;3.85;;
20336;SDS011;10326;53.660;10.200;2023-06-22T14:20:47;4.65;;;4.25;;
20336;SDS011;10326;53.660;10.200;2023-06-22T14:23:16;4.50;;;4.10;;
20336;SDS011;10326;53.660;10.200;2023-06-22T14:25:43;4.70;;;4.30;;
20336;SDS011;10326;53.660;10.200;2023-06-22T14:28:11;4.43;;;4.03;;
20336;SDS011;10326;53.660;10.200;2023-06-22T14:30:40;10.32;;;3.65;;
20336;SDS011;10326;53.660;10.200;2023-06-22T14:33:07;4.43;;;3.95;;
20336;SDS011;10326;53.660;10.200;2023-06-22T14:35:34;3.95;;;3.65;;
20336;SDS011;10326;53.660;10.200;2023-06-22T14:38:01;3.95;;;3.65;;
20336;SDS011;10326;53.660;10.200;2023-06-22T14:40:28;4.30;;;3.90;;
20336;SDS011;10326;53.660;10.200;2023-06-22T14:42:57;3.70;;;3.40;;
20336;SDS011;10326;53.660;10.200;2023-06-22T14:45:24;4.35;;;4.00;;
20336;SDS011;10326;53.660;10.200;2023-06-22T14:47:52;4.05;;;3.75;;
20336;SDS011;10326;53.660;10.200;2023-06-22T14:50:20;4.65;;;4.28;;